createdAt,value
2023-04-07T00:00:06.327Z,101625.00
2023-04-07T00:02:33.195Z,101625.00
2023-04-07T00:05:00.305Z,101620.00
2023-04-07T00:07:27.014Z,101629.00
2023-04-07T00:09:53.638Z,101634.00
2023-04-07T00:12:20.672Z,101626.00
2023-04-07T00:14:47.300Z,101629.00
2023-04-07T00:17:13.962Z,101630.00
2023-04-07T00:19:40.595Z,101637.00
2023-04-07T00:22:07.212Z,101644.00
2023-04-07T00:24:34.824Z,101636.00
2023-04-07T00:27:02.253Z,101642.00
2023-04-07T00:29:28.861Z,101638.00
2023-04-07T00:31:55.987Z,101644.00
2023-04-07T00:34:22.569Z,101643.00
2023-04-07T00:36:52.240Z,101641.00
2023-04-07T00:39:19.467Z,101638.00
2023-04-07T00:41:46.714Z,101639.00
2023-04-07T00:44:14.181Z,101639.00
2023-04-07T00:46:41.690Z,101638.00
2023-04-07T00:49:11.083Z,101640.00
2023-04-07T00:51:38.082Z,101634.00
2023-04-07T00:54:05.556Z,101632.00
2023-04-07T00:56:32.398Z,101634.00
2023-04-07T00:58:59.140Z,101642.00
2023-04-07T01:01:32.948Z,101637.00
2023-04-07T01:04:09.957Z,101637.00
2023-04-07T01:06:40.591Z,101641.00
2023-04-07T01:09:19.321Z,101630.00
2023-04-07T01:11:55.001Z,101633.00
2023-04-07T01:14:23.715Z,101628.00
2023-04-07T01:16:53.837Z,101628.00
2023-04-07T01:19:36.700Z,101626.00
2023-04-07T01:22:21.218Z,101632.00
2023-04-07T01:25:09.487Z,101636.00
2023-04-07T01:27:39.033Z,101630.00
2023-04-07T01:30:10.938Z,101630.00
2023-04-07T01:32:39.612Z,101634.00
2023-04-07T01:35:10.786Z,101631.00
2023-04-07T01:37:38.713Z,101647.00
2023-04-07T01:40:07.874Z,101644.00
2023-04-07T01:42:36.877Z,101644.00
2023-04-07T01:45:04.796Z,101639.00
2023-04-07T01:47:32.803Z,101643.00
2023-04-07T01:50:04.618Z,101643.00
2023-04-07T01:52:32.640Z,101648.00
2023-04-07T01:54:59.375Z,101638.00
2023-04-07T01:57:26.753Z,101645.00
2023-04-07T01:59:53.770Z,101645.00
2023-04-07T02:02:20.625Z,101649.00
2023-04-07T02:04:56.295Z,101651.00
2023-04-07T02:08:03.408Z,101650.00
2023-04-07T02:10:33.138Z,101652.00
2023-04-07T02:13:01.788Z,101654.00
2023-04-07T02:15:29.243Z,101655.00
2023-04-07T02:17:58.450Z,101656.00
2023-04-07T02:20:25.509Z,101658.00
2023-04-07T02:22:52.289Z,101658.00
2023-04-07T02:25:30.343Z,101656.00
2023-04-07T02:27:59.473Z,101665.00
2023-04-07T02:30:26.370Z,101665.00
2023-04-07T02:32:53.501Z,101670.00
2023-04-07T02:35:20.527Z,101652.00
2023-04-07T02:37:47.554Z,101653.00
2023-04-07T02:40:14.654Z,101651.00
2023-04-07T02:42:41.719Z,101652.00
2023-04-07T02:45:10.074Z,101652.00
2023-04-07T02:47:37.827Z,101656.00
2023-04-07T02:50:05.100Z,101652.00
2023-04-07T02:52:31.669Z,101655.00
2023-04-07T02:54:58.348Z,101649.00
2023-04-07T02:57:24.922Z,101663.00
2023-04-07T02:59:51.542Z,101663.00
2023-04-07T03:02:18.331Z,101657.00
2023-04-07T03:04:44.986Z,101660.00
2023-04-07T03:07:11.705Z,101674.00
2023-04-07T03:09:38.357Z,101666.00
2023-04-07T03:12:05.094Z,101673.00
2023-04-07T03:14:34.268Z,101666.00
2023-04-07T03:17:00.903Z,101668.00
2023-04-07T03:19:27.500Z,101671.00
2023-04-07T03:21:54.237Z,101671.00
2023-04-07T03:24:20.797Z,101670.00
2023-04-07T03:26:47.676Z,101669.00
2023-04-07T03:29:14.314Z,101667.00
2023-04-07T03:31:40.952Z,101671.00
2023-04-07T03:34:08.452Z,101679.00
2023-04-07T03:36:35.221Z,101671.00
2023-04-07T03:39:01.840Z,101663.00
2023-04-07T03:41:28.494Z,101665.00
2023-04-07T03:43:55.162Z,101664.00
2023-04-07T03:46:21.902Z,101672.00
2023-04-07T03:48:48.632Z,101672.00
2023-04-07T03:51:15.591Z,101662.00
2023-04-07T03:53:42.191Z,101671.00
2023-04-07T03:56:09.012Z,101659.00
2023-04-07T03:58:36.011Z,101665.00
2023-04-07T04:01:03.360Z,101665.00
2023-04-07T04:03:30.159Z,101661.00
2023-04-07T04:05:56.856Z,101664.00
2023-04-07T04:08:23.998Z,101669.00
2023-04-07T04:10:50.702Z,101671.00
2023-04-07T04:13:17.360Z,101675.00
2023-04-07T04:15:44.014Z,101664.00
2023-04-07T04:18:10.868Z,101675.00
2023-04-07T04:20:37.933Z,101669.00
2023-04-07T04:23:04.562Z,101680.00
2023-04-07T04:25:31.197Z,101678.00
2023-04-07T04:27:57.870Z,101670.00
2023-04-07T04:30:24.517Z,101678.00
2023-04-07T04:32:51.255Z,101675.00
2023-04-07T04:35:17.951Z,101676.00
2023-04-07T04:37:44.593Z,101678.00
2023-04-07T04:40:11.844Z,101682.00
2023-04-07T04:42:38.490Z,101694.00
2023-04-07T04:45:05.904Z,101695.00
2023-04-07T04:47:32.549Z,101692.00
2023-04-07T04:49:59.293Z,101697.00
2023-04-07T04:52:27.325Z,101703.00
2023-04-07T04:54:53.972Z,101713.00
2023-04-07T04:57:20.679Z,101709.00
2023-04-07T04:59:47.401Z,101714.00
2023-04-07T05:02:14.038Z,101716.00
2023-04-07T05:04:40.780Z,101718.00
2023-04-07T05:07:07.514Z,101723.00
2023-04-07T05:09:34.166Z,101725.00
2023-04-07T05:12:01.925Z,101726.00
2023-04-07T05:14:28.678Z,101729.00
2023-04-07T05:16:55.320Z,101732.00
2023-04-07T05:19:21.963Z,101732.00
2023-04-07T05:21:48.544Z,101736.00
2023-04-07T05:24:15.155Z,101728.00
2023-04-07T05:26:41.763Z,101732.00
2023-04-07T05:29:08.373Z,101733.00
2023-04-07T05:31:37.422Z,101740.00
2023-04-07T05:34:04.222Z,101733.00
2023-04-07T05:36:31.916Z,101741.00
2023-04-07T05:38:58.611Z,101744.00
2023-04-07T05:41:25.190Z,101739.00
2023-04-07T05:43:52.104Z,101739.00
2023-04-07T05:46:19.113Z,101746.00
2023-04-07T05:48:45.925Z,101752.00
2023-04-07T05:51:12.529Z,101757.00
2023-04-07T05:53:39.535Z,101754.00
2023-04-07T05:56:06.208Z,101757.00
2023-04-07T05:58:33.080Z,101762.00
2023-04-07T06:00:59.727Z,101761.00
2023-04-07T06:03:26.714Z,101762.00
2023-04-07T06:05:53.333Z,101772.00
2023-04-07T06:08:20.057Z,101767.00
2023-04-07T06:10:46.831Z,101773.00
2023-04-07T06:13:13.592Z,101769.00
2023-04-07T06:15:40.502Z,101780.00
2023-04-07T06:18:07.159Z,101783.00
2023-04-07T06:20:33.828Z,101775.00
2023-04-07T06:23:00.419Z,101780.00
2023-04-07T06:25:27.025Z,101793.00
2023-04-07T06:27:55.656Z,101782.00
2023-04-07T06:30:22.342Z,101781.00
2023-04-07T06:32:49.003Z,101779.00
2023-04-07T06:35:16.090Z,101783.00
2023-04-07T06:37:42.778Z,101777.00
2023-04-07T06:40:09.797Z,101793.00
2023-04-07T06:42:36.500Z,101792.00
2023-04-07T06:45:03.402Z,101797.00
2023-04-07T06:47:29.944Z,101800.00
2023-04-07T06:49:56.463Z,101800.00
2023-04-07T06:52:23.073Z,101805.00
2023-04-07T06:54:49.660Z,101799.00
2023-04-07T06:57:16.274Z,101803.00
2023-04-07T06:59:43.026Z,101808.00
2023-04-07T07:02:09.844Z,101816.00
2023-04-07T07:04:37.073Z,101817.00
2023-04-07T07:07:03.962Z,101820.00
2023-04-07T07:09:30.695Z,101826.00
2023-04-07T07:11:57.686Z,101830.00
2023-04-07T07:14:24.267Z,101830.00
2023-04-07T07:16:50.979Z,101824.00
2023-04-07T07:19:17.571Z,101839.00
2023-04-07T07:21:44.221Z,101833.00
2023-04-07T07:24:11.004Z,101832.00
2023-04-07T07:26:37.625Z,101839.00
2023-04-07T07:29:04.190Z,101842.00
2023-04-07T07:31:31.496Z,101847.00
2023-04-07T07:33:58.302Z,101856.00
2023-04-07T07:36:24.946Z,101855.00
2023-04-07T07:38:51.954Z,101860.00
2023-04-07T07:41:18.753Z,101856.00
2023-04-07T07:43:46.566Z,101855.00
2023-04-07T07:46:13.322Z,101853.00
2023-04-07T07:48:39.931Z,101857.00
2023-04-07T07:51:06.650Z,101864.00
2023-04-07T07:53:33.319Z,101864.00
2023-04-07T07:56:00.135Z,101871.00
2023-04-07T07:58:26.733Z,101872.00
2023-04-07T08:00:53.438Z,101884.00
2023-04-07T08:03:22.685Z,101876.00
2023-04-07T08:05:49.903Z,101873.00
2023-04-07T08:08:16.486Z,101873.00
2023-04-07T08:10:43.065Z,101886.00
2023-04-07T08:13:09.694Z,101884.00
2023-04-07T08:15:36.288Z,101886.00
2023-04-07T08:18:04.838Z,101890.00
2023-04-07T08:20:31.872Z,101897.00
2023-04-07T08:22:58.840Z,101899.00
2023-04-07T08:25:25.873Z,101902.00
2023-04-07T08:27:52.431Z,101907.00
2023-04-07T08:30:21.089Z,101899.00
2023-04-07T08:32:47.884Z,101909.00
2023-04-07T08:35:14.459Z,101911.00
2023-04-07T08:37:42.294Z,101909.00
2023-04-07T08:40:09.432Z,101916.00
2023-04-07T08:42:41.608Z,101919.00
2023-04-07T08:45:09.837Z,101918.00
2023-04-07T08:47:37.648Z,101915.00
2023-04-07T08:50:09.384Z,101917.00
2023-04-07T08:52:42.232Z,101919.00
2023-04-07T08:55:09.547Z,101927.00
2023-04-07T08:57:36.882Z,101926.00
2023-04-07T09:00:07.775Z,101933.00
2023-04-07T09:02:46.707Z,101936.00
2023-04-07T09:05:16.948Z,101936.00
2023-04-07T09:07:43.969Z,101934.00
2023-04-07T09:10:11.307Z,101936.00
2023-04-07T09:12:38.397Z,101938.00
2023-04-07T09:15:08.921Z,101943.00
2023-04-07T09:17:35.926Z,101947.00
2023-04-07T09:20:03.381Z,101944.00
2023-04-07T09:22:40.141Z,101945.00
2023-04-07T09:25:22.968Z,101950.00
2023-04-07T09:28:04.409Z,101950.00
2023-04-07T09:30:32.813Z,101951.00
2023-04-07T09:33:00.612Z,101952.00
2023-04-07T09:35:28.844Z,101953.00
2023-04-07T09:38:08.798Z,101965.00
2023-04-07T09:40:37.431Z,101965.00
2023-04-07T09:43:05.174Z,101962.00
2023-04-07T09:45:35.850Z,101971.00
2023-04-07T09:48:07.960Z,101964.00
2023-04-07T09:50:49.394Z,101967.00
2023-04-07T09:53:16.823Z,101966.00
2023-04-07T09:55:44.255Z,101968.00
2023-04-07T09:58:14.577Z,101971.00
2023-04-07T10:00:42.192Z,101970.00
2023-04-07T10:03:09.289Z,101966.00
2023-04-07T10:05:39.005Z,101972.00
2023-04-07T10:08:06.727Z,101973.00
2023-04-07T10:10:34.638Z,101967.00
2023-04-07T10:13:04.233Z,101972.00
2023-04-07T10:15:31.022Z,101978.00
2023-04-07T10:17:58.701Z,101976.00
2023-04-07T10:20:25.766Z,101973.00
2023-04-07T10:22:57.734Z,101975.00
2023-04-07T10:25:26.336Z,101980.00
2023-04-07T10:27:58.315Z,101978.00
2023-04-07T10:30:32.923Z,101979.00
2023-04-07T10:32:59.710Z,101989.00
2023-04-07T10:35:27.019Z,101980.00
2023-04-07T10:38:13.482Z,101984.00
2023-04-07T10:40:41.487Z,101993.00
2023-04-07T10:43:11.257Z,101989.00
2023-04-07T10:45:50.091Z,101983.00
2023-04-07T10:48:18.337Z,101982.00
2023-04-07T10:50:46.890Z,101983.00
2023-04-07T10:53:15.352Z,101993.00
2023-04-07T10:55:46.340Z,101994.00
2023-04-07T10:58:22.948Z,101990.00
2023-04-07T11:00:58.878Z,101993.00
2023-04-07T11:03:26.255Z,101991.00
2023-04-07T11:05:53.106Z,101990.00
2023-04-07T11:08:38.654Z,101993.00
2023-04-07T11:11:10.227Z,101994.00
2023-04-07T11:13:43.959Z,101996.00
2023-04-07T11:16:10.775Z,102005.00
2023-04-07T11:18:37.980Z,102005.00
2023-04-07T11:21:08.340Z,102006.00
2023-04-07T11:23:46.103Z,102011.00
2023-04-07T11:26:14.903Z,102011.00
2023-04-07T11:28:55.730Z,102007.00
2023-04-07T11:31:23.708Z,102007.00
2023-04-07T11:33:59.378Z,102012.00
2023-04-07T11:36:38.459Z,102008.00
2023-04-07T11:39:05.441Z,102010.00
2023-04-07T11:41:33.893Z,102014.00
2023-04-07T11:44:05.164Z,102008.00
2023-04-07T11:46:31.939Z,102004.00
2023-04-07T11:49:12.756Z,102008.00
2023-04-07T11:51:39.580Z,102007.00
2023-04-07T11:54:06.425Z,102020.00
2023-04-07T11:56:46.154Z,102019.00
2023-04-07T11:59:26.015Z,102024.00
2023-04-07T12:01:56.162Z,102013.00
2023-04-07T12:04:24.621Z,102030.00
2023-04-07T12:06:51.694Z,102032.00
2023-04-07T12:09:29.462Z,102028.00
2023-04-07T12:11:57.783Z,102036.00
2023-04-07T12:14:25.758Z,102033.00
2023-04-07T12:16:53.362Z,102040.00
2023-04-07T12:19:20.086Z,102040.00
2023-04-07T12:21:46.973Z,102039.00
2023-04-07T12:24:13.511Z,102035.00
2023-04-07T12:26:40.344Z,102040.00
2023-04-07T12:29:07.177Z,102039.00
2023-04-07T12:31:34.519Z,102046.00
2023-04-07T12:34:01.533Z,102048.00
2023-04-07T12:36:28.084Z,102050.00
2023-04-07T12:38:54.847Z,102063.00
2023-04-07T12:41:21.462Z,102068.00
2023-04-07T12:43:48.497Z,102062.00
2023-04-07T12:46:15.527Z,102057.00
2023-04-07T12:48:42.261Z,102067.00
2023-04-07T12:51:08.969Z,102056.00
2023-04-07T12:53:35.595Z,102067.00
2023-04-07T12:56:02.476Z,102056.00
2023-04-07T12:58:29.258Z,102060.00
2023-04-07T13:00:56.785Z,102067.00
2023-04-07T13:03:23.792Z,102077.00
2023-04-07T13:05:50.825Z,102077.00
2023-04-07T13:08:17.486Z,102072.00
2023-04-07T13:10:44.334Z,102083.00
2023-04-07T13:13:11.279Z,102093.00
2023-04-07T13:15:37.934Z,102096.00
2023-04-07T13:18:04.598Z,102084.00
2023-04-07T13:20:31.410Z,102091.00
2023-04-07T13:23:07.644Z,102088.00
2023-04-07T13:25:36.511Z,102089.00
2023-04-07T13:28:03.478Z,102094.00
2023-04-07T13:30:30.169Z,102099.00
2023-04-07T13:32:57.456Z,102102.00
2023-04-07T13:35:24.200Z,102100.00
2023-04-07T13:37:50.897Z,102104.00
2023-04-07T13:40:19.868Z,102098.00
2023-04-07T13:42:46.544Z,102095.00
2023-04-07T13:45:13.233Z,102100.00
2023-04-07T13:47:39.960Z,102090.00
2023-04-07T13:50:07.181Z,102091.00
2023-04-07T13:52:35.546Z,102093.00
2023-04-07T13:55:04.376Z,102093.00
2023-04-07T13:57:31.425Z,102097.00
2023-04-07T13:59:58.217Z,102085.00
2023-04-07T14:02:28.026Z,102084.00
2023-04-07T14:04:54.812Z,102086.00
2023-04-07T14:07:22.943Z,102086.00
2023-04-07T14:09:49.870Z,102087.00
2023-04-07T14:12:16.494Z,102098.00
2023-04-07T14:14:43.075Z,102090.00
2023-04-07T14:17:09.669Z,102091.00
2023-04-07T14:19:36.369Z,102101.00
2023-04-07T14:22:03.010Z,102102.00
2023-04-07T14:24:29.602Z,102104.00
2023-04-07T14:26:56.249Z,102096.00
2023-04-07T14:29:23.610Z,102088.00
2023-04-07T14:31:51.524Z,102092.00
2023-04-07T14:34:18.100Z,102088.00
2023-04-07T14:36:54.788Z,102090.00
2023-04-07T14:39:22.715Z,102083.00
2023-04-07T14:41:49.340Z,102090.00
2023-04-07T14:44:16.249Z,102089.00
2023-04-07T14:46:43.038Z,102090.00
2023-04-07T14:49:10.431Z,102085.00
2023-04-07T14:51:37.125Z,102100.00
2023-04-07T14:54:03.812Z,102090.00
2023-04-07T14:56:30.614Z,102101.00
2023-04-07T14:58:57.344Z,102100.00
2023-04-07T15:01:24.139Z,102103.00
2023-04-07T15:03:53.936Z,102104.00
2023-04-07T15:06:20.951Z,102101.00
2023-04-07T15:08:47.759Z,102097.00
2023-04-07T15:11:14.446Z,102097.00
2023-04-07T15:13:41.095Z,102100.00
2023-04-07T15:16:14.994Z,102103.00
2023-04-07T15:18:44.552Z,102105.00
2023-04-07T15:21:12.148Z,102097.00
2023-04-07T15:23:38.947Z,102106.00
2023-04-07T15:26:06.446Z,102104.00
2023-04-07T15:28:33.164Z,102102.00
2023-04-07T15:31:01.281Z,102108.00
2023-04-07T15:33:28.337Z,102109.00
2023-04-07T15:35:56.084Z,102113.00
2023-04-07T15:38:22.674Z,102111.00
2023-04-07T15:40:49.392Z,102112.00
2023-04-07T15:43:16.326Z,102110.00
2023-04-07T15:45:44.423Z,102108.00
2023-04-07T15:48:12.156Z,102113.00
2023-04-07T15:50:38.912Z,102110.00
2023-04-07T15:53:06.119Z,102112.00
2023-04-07T15:55:36.566Z,102109.00
2023-04-07T15:58:04.109Z,102105.00
2023-04-07T16:00:33.640Z,102106.00
2023-04-07T16:03:02.384Z,102107.00
2023-04-07T16:05:29.576Z,102105.00
2023-04-07T16:07:56.472Z,102110.00
2023-04-07T16:10:23.787Z,102105.00
2023-04-07T16:12:50.638Z,102115.00
2023-04-07T16:15:28.946Z,102112.00
2023-04-07T16:18:08.351Z,102114.00
2023-04-07T16:20:35.029Z,102117.00
2023-04-07T16:23:01.879Z,102117.00
2023-04-07T16:25:28.570Z,102116.00
2023-04-07T16:27:55.298Z,102126.00
2023-04-07T16:30:22.195Z,102130.00
2023-04-07T16:32:48.842Z,102134.00
2023-04-07T16:35:16.213Z,102131.00
2023-04-07T16:37:43.610Z,102128.00
2023-04-07T16:40:11.001Z,102125.00
2023-04-07T16:42:37.800Z,102131.00
2023-04-07T16:45:05.176Z,102127.00
2023-04-07T16:47:32.135Z,102129.00
2023-04-07T16:49:59.431Z,102133.00
2023-04-07T16:52:26.612Z,102140.00
2023-04-07T16:54:53.507Z,102134.00
2023-04-07T16:57:20.120Z,102140.00
2023-04-07T16:59:47.318Z,102136.00
2023-04-07T17:02:16.822Z,102141.00
2023-04-07T17:04:44.284Z,102140.00
2023-04-07T17:07:12.019Z,102149.00
2023-04-07T17:09:39.345Z,102156.00
2023-04-07T17:12:06.347Z,102157.00
2023-04-07T17:14:33.628Z,102169.00
2023-04-07T17:17:00.492Z,102169.00
2023-04-07T17:19:27.397Z,102172.00
2023-04-07T17:21:54.068Z,102171.00
2023-04-07T17:24:22.609Z,102170.00
2023-04-07T17:26:49.520Z,102180.00
2023-04-07T17:29:17.029Z,102177.00
2023-04-07T17:31:43.855Z,102184.00
2023-04-07T17:34:11.320Z,102185.00
2023-04-07T17:36:38.201Z,102187.00
2023-04-07T17:39:05.522Z,102188.00
2023-04-07T17:41:35.605Z,102194.00
2023-04-07T17:44:02.346Z,102192.00
2023-04-07T17:46:29.498Z,102199.00
2023-04-07T17:48:58.927Z,102202.00
2023-04-07T17:51:26.490Z,102205.00
2023-04-07T17:53:54.213Z,102207.00
2023-04-07T17:56:21.171Z,102208.00
2023-04-07T17:58:48.029Z,102213.00
2023-04-07T18:01:15.794Z,102215.00
2023-04-07T18:03:42.843Z,102212.00
2023-04-07T18:06:09.717Z,102214.00
2023-04-07T18:08:36.623Z,102218.00
2023-04-07T18:11:04.793Z,102226.00
2023-04-07T18:13:33.251Z,102222.00
2023-04-07T18:16:00.721Z,102219.00
2023-04-07T18:18:27.492Z,102227.00
2023-04-07T18:20:54.190Z,102228.00
2023-04-07T18:23:20.839Z,102225.00
2023-04-07T18:25:47.663Z,102223.00
2023-04-07T18:28:14.307Z,102240.00
2023-04-07T18:30:42.037Z,102234.00
2023-04-07T18:33:09.131Z,102232.00
2023-04-07T18:35:36.051Z,102234.00
2023-04-07T18:38:04.688Z,102237.00
2023-04-07T18:40:33.436Z,102241.00
2023-04-07T18:43:00.344Z,102243.00
2023-04-07T18:45:26.971Z,102247.00
2023-04-07T18:47:53.645Z,102249.00
2023-04-07T18:50:20.478Z,102252.00
2023-04-07T18:52:47.145Z,102253.00
2023-04-07T18:55:14.073Z,102261.00
2023-04-07T18:57:41.250Z,102259.00
2023-04-07T19:00:08.733Z,102260.00
2023-04-07T19:02:35.585Z,102262.00
2023-04-07T19:05:02.341Z,102265.00
2023-04-07T19:07:28.887Z,102272.00
2023-04-07T19:09:55.578Z,102271.00
2023-04-07T19:12:22.608Z,102277.00
2023-04-07T19:14:49.400Z,102274.00
2023-04-07T19:17:16.534Z,102275.00
2023-04-07T19:19:43.159Z,102278.00
2023-04-07T19:22:10.060Z,102281.00
2023-04-07T19:24:36.882Z,102272.00
2023-04-07T19:27:04.260Z,102280.00
2023-04-07T19:29:31.414Z,102287.00
2023-04-07T19:31:58.049Z,102291.00
2023-04-07T19:34:24.666Z,102294.00
2023-04-07T19:36:51.313Z,102293.00
2023-04-07T19:39:17.951Z,102296.00
2023-04-07T19:41:44.640Z,102291.00
2023-04-07T19:44:11.533Z,102294.00
2023-04-07T19:46:38.148Z,102295.00
2023-04-07T19:49:04.756Z,102297.00
2023-04-07T19:51:31.386Z,102305.00
2023-04-07T19:53:58.004Z,102294.00
2023-04-07T19:56:25.136Z,102305.00
2023-04-07T19:58:51.882Z,102297.00
2023-04-07T20:01:19.220Z,102316.00
2023-04-07T20:03:46.797Z,102314.00
2023-04-07T20:06:15.262Z,102309.00
2023-04-07T20:08:42.679Z,102311.00
2023-04-07T20:11:13.404Z,102316.00
2023-04-07T20:13:41.296Z,102315.00
2023-04-07T20:16:08.355Z,102319.00
2023-04-07T20:18:34.990Z,102314.00
2023-04-07T20:21:02.883Z,102310.00
2023-04-07T20:23:29.560Z,102313.00
2023-04-07T20:25:56.479Z,102312.00
2023-04-07T20:28:24.099Z,102306.00
2023-04-07T20:30:51.500Z,102313.00
2023-04-07T20:33:18.403Z,102311.00
2023-04-07T20:35:45.065Z,102314.00
2023-04-07T20:38:11.683Z,102316.00
2023-04-07T20:40:38.447Z,102307.00
2023-04-07T20:43:06.034Z,102307.00
2023-04-07T20:45:33.312Z,102314.00
2023-04-07T20:48:00.238Z,102317.00
2023-04-07T20:50:27.678Z,102322.00
2023-04-07T20:52:54.525Z,102314.00
2023-04-07T20:55:21.707Z,102319.00
2023-04-07T20:57:48.570Z,102321.00
2023-04-07T21:00:17.207Z,102324.00
2023-04-07T21:02:45.136Z,102314.00
2023-04-07T21:05:11.862Z,102312.00
2023-04-07T21:07:38.543Z,102318.00
2023-04-07T21:10:05.844Z,102314.00
2023-04-07T21:12:32.519Z,102323.00
2023-04-07T21:14:59.766Z,102321.00
2023-04-07T21:17:26.365Z,102319.00
2023-04-07T21:19:52.972Z,102328.00
2023-04-07T21:22:19.645Z,102320.00
2023-04-07T21:24:46.387Z,102327.00
2023-04-07T21:27:13.736Z,102317.00
2023-04-07T21:29:43.084Z,102325.00
2023-04-07T21:32:10.449Z,102325.00
2023-04-07T21:34:37.109Z,102331.00
2023-04-07T21:37:03.777Z,102332.00
2023-04-07T21:39:30.430Z,102332.00
2023-04-07T21:42:01.645Z,102329.00
2023-04-07T21:44:28.207Z,102326.00
2023-04-07T21:46:54.840Z,102331.00
2023-04-07T21:49:22.507Z,102326.00
2023-04-07T21:51:49.271Z,102320.00
2023-04-07T21:54:16.457Z,102332.00
2023-04-07T21:56:57.463Z,102326.00
2023-04-07T21:59:24.036Z,102331.00
2023-04-07T22:01:50.750Z,102327.00
2023-04-07T22:04:17.861Z,102328.00
2023-04-07T22:06:44.542Z,102327.00
2023-04-07T22:09:11.790Z,102321.00
2023-04-07T22:11:38.394Z,102328.00
2023-04-07T22:14:05.351Z,102326.00
2023-04-07T22:16:32.108Z,102325.00
2023-04-07T22:18:59.029Z,102316.00
2023-04-07T22:21:25.699Z,102326.00
2023-04-07T22:23:52.363Z,102327.00
2023-04-07T22:26:19.113Z,102324.00
2023-04-07T22:28:45.753Z,102328.00
2023-04-07T22:31:12.676Z,102336.00
2023-04-07T22:33:39.453Z,102338.00
2023-04-07T22:36:06.224Z,102331.00
2023-04-07T22:38:32.839Z,102340.00
2023-04-07T22:40:59.568Z,102339.00
2023-04-07T22:43:26.188Z,102341.00
2023-04-07T22:45:52.830Z,102339.00
2023-04-07T22:48:19.498Z,102336.00
2023-04-07T22:50:46.492Z,102346.00
2023-04-07T22:53:13.086Z,102349.00
2023-04-07T22:55:42.471Z,102340.00
2023-04-07T22:58:09.114Z,102340.00
2023-04-07T23:00:35.811Z,102340.00
2023-04-07T23:03:02.770Z,102353.00
2023-04-07T23:05:29.411Z,102342.00
2023-04-07T23:07:56.363Z,102351.00
2023-04-07T23:10:23.057Z,102347.00
2023-04-07T23:12:52.822Z,102353.00
2023-04-07T23:15:19.640Z,102348.00
2023-04-07T23:17:46.282Z,102359.00
2023-04-07T23:20:13.164Z,102363.00
2023-04-07T23:22:39.725Z,102359.00
2023-04-07T23:25:07.020Z,102359.00
2023-04-07T23:27:33.715Z,102359.00
2023-04-07T23:30:00.323Z,102366.00
2023-04-07T23:32:27.114Z,102359.00
2023-04-07T23:34:53.736Z,102360.00
2023-04-07T23:37:20.329Z,102361.00
2023-04-07T23:39:47.126Z,102357.00
2023-04-07T23:42:14.799Z,102361.00
2023-04-07T23:44:41.454Z,102370.00
2023-04-07T23:47:08.056Z,102364.00
2023-04-07T23:49:34.659Z,102366.00
2023-04-07T23:52:01.809Z,102366.00
2023-04-07T23:54:28.456Z,102369.00
2023-04-07T23:56:55.046Z,102366.00
2023-04-07T23:59:21.648Z,102370.00
